createdAt,value
2018-11-20T00:00:28.508Z,9.88
2018-11-20T00:06:09.988Z,10.58
2018-11-20T00:08:57.203Z,9.43
2018-11-20T00:11:38.191Z,11.60
2018-11-20T00:14:25.318Z,11.65
2018-11-20T00:17:32.061Z,11.15
2018-11-20T00:20:19.251Z,11.25
2018-11-20T00:22:56.617Z,11.00
2018-11-20T00:25:43.877Z,11.40
2018-11-20T00:31:25.603Z,12.30
2018-11-20T00:34:02.291Z,11.88
2018-11-20T00:36:51.856Z,11.22
2018-11-20T00:39:38.981Z,12.68
2018-11-20T00:42:28.836Z,10.68
2018-11-20T00:45:18.751Z,12.05
2018-11-20T00:48:06.014Z,12.03
2018-11-20T00:50:53.247Z,12.20
2018-11-20T00:53:31.420Z,12.15
2018-11-20T00:56:57.464Z,12.00
2018-11-20T00:59:46.598Z,11.78
2018-11-20T01:02:33.783Z,13.25
2018-11-20T01:05:21.321Z,12.55
2018-11-20T01:08:08.489Z,14.00
2018-11-20T01:10:55.710Z,13.03
2018-11-20T01:13:45.714Z,14.53
2018-11-20T01:16:33.120Z,12.93
2018-11-20T01:19:20.329Z,13.32
2018-11-20T01:22:09.840Z,13.70
2018-11-20T01:24:59.524Z,12.58
2018-11-20T01:27:49.652Z,13.98
2018-11-20T01:30:39.117Z,13.38
2018-11-20T01:33:20.546Z,13.00
2018-11-20T01:36:07.663Z,14.80
2018-11-20T01:38:54.937Z,13.80
2018-11-20T01:41:42.181Z,12.43
2018-11-20T01:44:29.419Z,12.60
2018-11-20T01:47:16.712Z,14.28
2018-11-20T01:50:03.918Z,12.80
2018-11-20T01:52:51.121Z,12.60
2018-11-20T01:55:38.366Z,13.28
2018-11-20T01:58:25.653Z,13.40
2018-11-20T02:01:12.901Z,12.88
2018-11-20T02:04:00.098Z,13.98
2018-11-20T02:06:39.575Z,13.43
2018-11-20T02:09:27.408Z,13.98
2018-11-20T02:12:16.856Z,13.68
2018-11-20T02:15:04.091Z,13.90
2018-11-20T02:17:58.322Z,13.00
2018-11-20T02:20:45.614Z,12.00
2018-11-20T02:23:32.754Z,13.72
2018-11-20T02:26:20.054Z,14.98
2018-11-20T02:29:07.252Z,13.93
2018-11-20T02:31:54.522Z,14.10
2018-11-20T02:34:41.714Z,13.75
2018-11-20T02:37:28.995Z,13.55
2018-11-20T02:40:04.326Z,15.55
2018-11-20T02:42:51.535Z,14.28
2018-11-20T02:45:38.739Z,15.72
2018-11-20T02:48:27.379Z,15.05
2018-11-20T02:51:14.520Z,15.05
2018-11-20T02:53:57.970Z,15.88
2018-11-20T02:56:45.180Z,13.62
2018-11-20T02:59:32.419Z,15.55
2018-11-20T03:02:19.640Z,14.53
2018-11-20T03:04:59.275Z,14.03
2018-11-20T03:07:46.536Z,13.90
2018-11-20T03:10:33.727Z,15.05
2018-11-20T03:13:20.948Z,13.48
2018-11-20T03:16:08.242Z,13.75
2018-11-20T03:18:55.542Z,12.47
2018-11-20T03:21:42.676Z,13.50
2018-11-20T03:24:29.893Z,14.15
2018-11-20T03:27:07.624Z,14.00
2018-11-20T03:30:33.590Z,15.30
2018-11-20T03:33:20.809Z,12.90
2018-11-20T03:36:08.102Z,13.08
2018-11-20T03:38:55.191Z,13.13
2018-11-20T03:41:42.411Z,13.68
2018-11-20T03:44:29.635Z,14.93
2018-11-20T03:47:16.859Z,14.25
2018-11-20T03:50:04.067Z,12.15
2018-11-20T03:52:51.260Z,11.97
2018-11-20T03:55:38.473Z,13.75
2018-11-20T03:58:25.721Z,15.55
2018-11-20T04:01:12.963Z,13.75
2018-11-20T04:04:00.152Z,12.58
2018-11-20T04:06:47.341Z,13.90
2018-11-20T04:09:34.545Z,13.00
2018-11-20T04:12:21.747Z,13.30
2018-11-20T04:15:08.984Z,13.08
2018-11-20T04:17:56.309Z,13.90
2018-11-20T04:20:43.386Z,14.05
2018-11-20T04:23:30.578Z,13.38
2018-11-20T04:26:17.853Z,11.50
2018-11-20T04:29:05.561Z,13.98
2018-11-20T04:32:12.933Z,13.48
2018-11-20T04:35:02.100Z,13.10
2018-11-20T04:37:49.429Z,14.55
2018-11-20T04:40:36.582Z,12.05
2018-11-20T04:43:24.385Z,14.33
2018-11-20T04:46:11.588Z,12.70
2018-11-20T04:48:59.025Z,13.98
2018-11-20T04:51:46.240Z,14.45
2018-11-20T04:54:33.465Z,12.95
2018-11-20T04:57:20.775Z,13.65
2018-11-20T05:00:07.914Z,13.18
2018-11-20T05:02:55.128Z,14.47
2018-11-20T05:05:42.328Z,13.68
2018-11-20T05:08:29.561Z,13.10
2018-11-20T05:11:16.800Z,12.82
2018-11-20T05:14:03.986Z,13.58
2018-11-20T05:16:51.175Z,13.30
2018-11-20T05:19:38.397Z,15.20
2018-11-20T05:22:25.622Z,12.78
2018-11-20T05:25:12.825Z,14.87
2018-11-20T05:28:00.164Z,13.68
2018-11-20T05:30:47.406Z,13.40
2018-11-20T05:33:34.509Z,14.47
2018-11-20T05:36:21.754Z,14.85
2018-11-20T05:39:08.966Z,14.15
2018-11-20T05:41:56.157Z,14.33
2018-11-20T05:44:43.414Z,13.78
2018-11-20T05:47:30.632Z,14.10
2018-11-20T05:50:17.835Z,13.98
2018-11-20T05:53:05.095Z,15.18
2018-11-20T05:55:52.321Z,15.88
2018-11-20T05:58:39.538Z,14.47
2018-11-20T06:01:26.866Z,16.00
2018-11-20T06:04:14.104Z,15.15
2018-11-20T06:07:01.322Z,13.62
2018-11-20T06:09:48.583Z,12.82
2018-11-20T06:12:35.924Z,14.40
2018-11-20T06:15:23.127Z,13.83
2018-11-20T06:18:10.333Z,14.83
2018-11-20T06:20:57.575Z,15.53
2018-11-20T06:23:44.876Z,16.02
2018-11-20T06:26:32.019Z,15.23
2018-11-20T06:29:19.289Z,16.95
2018-11-20T06:32:06.480Z,15.88
2018-11-20T06:34:53.803Z,14.65
2018-11-20T06:37:31.205Z,15.70
2018-11-20T06:40:18.445Z,14.18
2018-11-20T06:43:05.730Z,15.23
2018-11-20T06:45:44.781Z,17.50
2018-11-20T06:48:40.030Z,13.85
2018-11-20T06:51:27.278Z,15.63
2018-11-20T06:54:14.514Z,14.50
2018-11-20T06:57:01.766Z,14.65
2018-11-20T06:59:49.033Z,14.98
2018-11-20T07:02:36.277Z,15.70
2018-11-20T07:05:23.602Z,15.85
2018-11-20T07:08:11.004Z,14.85
2018-11-20T07:10:46.311Z,15.40
2018-11-20T07:13:35.852Z,14.68
2018-11-20T07:16:43.430Z,14.65
2018-11-20T07:19:30.704Z,15.03
2018-11-20T07:22:17.972Z,17.50
2018-11-20T07:25:05.253Z,16.45
2018-11-20T07:27:43.219Z,14.75
2018-11-20T07:30:30.493Z,16.07
2018-11-20T07:33:17.671Z,16.57
2018-11-20T07:36:04.916Z,14.90
2018-11-20T07:38:47.707Z,15.08
2018-11-20T07:41:22.968Z,15.78
2018-11-20T07:44:10.194Z,15.53
2018-11-20T07:46:57.380Z,17.10
2018-11-20T07:49:44.590Z,14.87
2018-11-20T07:52:31.820Z,15.98
2018-11-20T07:55:19.066Z,15.03
2018-11-20T07:58:06.361Z,15.00
2018-11-20T08:00:53.551Z,15.70
2018-11-20T08:03:40.737Z,14.35
2018-11-20T08:06:27.964Z,15.25
2018-11-20T08:09:15.269Z,16.25
2018-11-20T08:12:02.479Z,15.75
2018-11-20T08:14:53.393Z,15.55
2018-11-20T08:17:31.408Z,15.78
2018-11-20T08:20:07.950Z,16.15
2018-11-20T08:22:55.244Z,16.77
2018-11-20T08:25:42.494Z,15.78
2018-11-20T08:28:29.714Z,14.78
2018-11-20T08:31:16.946Z,15.58
2018-11-20T08:34:04.248Z,15.25
2018-11-20T08:36:51.400Z,15.70
2018-11-20T08:39:38.655Z,14.93
2018-11-20T08:42:25.884Z,16.35
2018-11-20T08:45:04.965Z,15.88
2018-11-20T08:47:52.266Z,14.63
2018-11-20T08:50:39.384Z,16.70
2018-11-20T08:53:24.701Z,17.02
2018-11-20T08:56:11.855Z,16.10
2018-11-20T08:58:59.114Z,15.93
2018-11-20T09:01:47.335Z,15.65
2018-11-20T09:04:34.550Z,17.23
2018-11-20T09:07:21.771Z,15.55
2018-11-20T09:10:09.148Z,15.65
2018-11-20T09:12:56.173Z,16.35
2018-11-20T09:15:43.376Z,15.60
2018-11-20T09:18:30.546Z,16.60
2018-11-20T09:21:17.807Z,16.32
2018-11-20T09:24:04.953Z,16.07
2018-11-20T09:26:52.162Z,15.63
2018-11-20T09:29:39.350Z,17.00
2018-11-20T09:32:26.530Z,16.35
2018-11-20T09:35:13.836Z,17.10
2018-11-20T09:38:00.917Z,16.23
2018-11-20T09:41:08.115Z,16.57
2018-11-20T09:44:28.383Z,16.27
2018-11-20T09:47:15.583Z,15.35
2018-11-20T09:50:02.821Z,16.93
2018-11-20T10:04:50.661Z,15.93
2018-11-20T10:13:33.540Z,15.93
2018-11-20T10:16:10.989Z,16.20
2018-11-20T10:24:57.624Z,16.17
2018-11-20T10:30:43.744Z,15.63
2018-11-20T10:48:17.813Z,15.20
2018-11-20T10:51:05.084Z,17.10
2018-11-20T10:53:52.219Z,15.80
2018-11-20T11:00:01.975Z,17.20
2018-11-20T11:17:51.017Z,14.98
2018-11-20T11:20:29.622Z,15.95
2018-11-20T11:41:44.832Z,16.32
2018-11-20T11:44:30.949Z,16.70
2018-11-20T12:08:22.478Z,17.67
2018-11-20T12:14:06.194Z,15.40
2018-11-20T12:16:47.087Z,16.40
2018-11-20T12:19:34.392Z,16.35
2018-11-20T12:31:11.765Z,17.82
2018-11-20T12:45:58.278Z,16.73
2018-11-20T12:51:39.283Z,16.10
2018-11-20T13:00:20.063Z,13.40
2018-11-20T13:06:00.734Z,14.18
2018-11-20T13:08:48.132Z,14.38
2018-11-20T13:11:35.316Z,11.85
2018-11-20T13:14:22.569Z,12.50
2018-11-20T13:17:11.259Z,12.53
2018-11-20T13:19:56.906Z,11.18
2018-11-20T13:22:39.663Z,11.53
2018-11-20T13:25:26.141Z,10.35
2018-11-20T13:28:13.331Z,11.25
2018-11-20T13:34:03.714Z,11.95
2018-11-20T13:39:53.836Z,11.48
2018-11-20T13:42:43.776Z,10.88
2018-11-20T13:54:19.069Z,9.68
2018-11-20T14:12:08.297Z,11.10
2018-11-20T14:17:51.970Z,10.50
2018-11-20T14:20:32.404Z,11.63
2018-11-20T14:23:19.633Z,10.15
2018-11-20T14:26:06.821Z,10.58
2018-11-20T14:28:54.118Z,11.50
2018-11-20T14:37:44.733Z,11.88
2018-11-20T14:40:32.667Z,12.20
2018-11-20T14:43:21.921Z,11.50
2018-11-20T14:52:15.599Z,12.00
2018-11-20T14:58:18.632Z,12.33
2018-11-20T15:01:10.276Z,13.80
2018-11-20T15:07:20.373Z,12.37
2018-11-20T15:10:02.331Z,14.05
2018-11-20T15:12:52.769Z,12.60
2018-11-20T15:15:43.091Z,11.93
2018-11-20T15:18:50.720Z,13.03
2018-11-20T15:21:55.459Z,14.80
2018-11-20T15:27:44.461Z,14.98
2018-11-20T15:30:31.669Z,12.98
2018-11-20T15:39:04.694Z,15.25
2018-11-20T15:41:51.889Z,16.05
2018-11-20T15:44:30.731Z,15.68
2018-11-20T15:47:17.930Z,14.90
2018-11-20T15:50:05.149Z,14.58
2018-11-20T15:52:52.336Z,14.75
2018-11-20T15:55:39.532Z,14.50
2018-11-20T15:58:26.730Z,15.98
2018-11-20T16:01:13.979Z,14.50
2018-11-20T16:04:01.184Z,15.85
2018-11-20T16:06:48.373Z,15.38
2018-11-20T16:09:35.587Z,16.40
2018-11-20T16:12:22.781Z,13.48
2018-11-20T16:15:10.018Z,14.90
2018-11-20T16:17:57.240Z,14.63
2018-11-20T16:20:44.438Z,15.28
2018-11-20T16:23:31.634Z,16.97
2018-11-20T16:26:18.848Z,15.32
2018-11-20T16:31:58.540Z,16.17
2018-11-20T16:34:45.847Z,15.58
2018-11-20T16:37:32.975Z,15.32
2018-11-20T16:40:20.257Z,15.20
2018-11-20T16:52:52.061Z,16.67
2018-11-20T16:55:51.322Z,15.70
2018-11-20T16:58:59.909Z,15.75
2018-11-20T17:05:09.935Z,14.78
2018-11-20T17:13:57.643Z,15.43
2018-11-20T17:33:03.166Z,16.37
2018-11-20T17:51:39.587Z,16.17
2018-11-20T17:57:35.021Z,17.55
2018-11-20T18:00:44.473Z,18.57
2018-11-20T18:06:37.098Z,17.48
2018-11-20T18:15:29.833Z,17.70
2018-11-20T18:18:11.278Z,17.75
2018-11-20T18:20:58.459Z,17.70
2018-11-20T18:23:45.642Z,17.17
2018-11-20T18:26:32.814Z,17.00
2018-11-20T18:29:20.037Z,18.12
2018-11-20T18:32:07.214Z,18.52
2018-11-20T18:34:54.445Z,17.48
2018-11-20T18:37:41.632Z,15.60
2018-11-20T18:40:17.913Z,17.12
2018-11-20T18:43:05.164Z,14.95
2018-11-20T18:45:52.301Z,15.50
2018-11-20T18:48:39.538Z,16.45
2018-11-20T18:51:26.714Z,15.25
2018-11-20T18:54:13.945Z,16.10
2018-11-20T18:57:01.276Z,16.10
2018-11-20T18:59:39.269Z,17.07
2018-11-20T19:02:27.698Z,15.05
2018-11-20T19:05:13.691Z,16.55
2018-11-20T19:08:03.284Z,16.35
2018-11-20T19:10:49.253Z,15.95
2018-11-20T19:16:32.588Z,15.85
2018-11-20T19:22:26.747Z,17.70
2018-11-20T19:28:49.132Z,15.28
2018-11-20T19:32:02.231Z,14.03
2018-11-20T19:41:24.621Z,23.98
2018-11-20T19:44:13.349Z,16.60
2018-11-20T19:54:08.727Z,16.10
2018-11-20T19:56:56.953Z,14.35
2018-11-20T20:03:06.643Z,16.93
2018-11-20T20:21:32.823Z,15.00
2018-11-20T20:24:17.220Z,20.00
2018-11-20T20:37:03.085Z,16.67
2018-11-20T20:42:35.767Z,14.55
2018-11-20T20:55:15.832Z,17.23
2018-11-20T21:01:05.510Z,14.78
2018-11-20T21:04:14.070Z,15.05
2018-11-20T21:07:09.233Z,15.23
2018-11-20T21:10:00.295Z,15.65
2018-11-20T21:12:48.786Z,15.30
2018-11-20T21:31:20.464Z,17.00
2018-11-20T21:34:08.727Z,16.40
2018-11-20T21:37:01.413Z,16.97
2018-11-20T21:48:46.753Z,16.77
2018-11-20T21:51:35.507Z,16.67
2018-11-20T21:54:35.260Z,15.65
2018-11-20T22:00:35.070Z,16.57
2018-11-20T22:06:44.613Z,14.78
2018-11-20T22:15:25.914Z,15.70
2018-11-20T22:24:24.458Z,14.40
2018-11-20T22:27:23.726Z,17.25
2018-11-20T22:30:05.240Z,16.40
2018-11-20T22:32:53.125Z,16.00
2018-11-20T22:35:48.215Z,14.25
2018-11-20T22:38:34.523Z,16.50
2018-11-20T22:41:22.549Z,15.60
2018-11-20T22:44:29.299Z,14.90
2018-11-20T23:02:51.074Z,15.20
2018-11-20T23:05:59.350Z,14.70
2018-11-20T23:08:44.865Z,16.32
2018-11-20T23:11:13.972Z,16.37
2018-11-20T23:19:33.742Z,16.90
2018-11-20T23:22:11.647Z,16.70
2018-11-20T23:24:41.449Z,16.45
2018-11-20T23:27:33.476Z,15.78
2018-11-20T23:30:05.663Z,17.42
2018-11-20T23:35:46.818Z,16.40
2018-11-20T23:38:15.050Z,16.40
2018-11-20T23:40:48.951Z,17.07
2018-11-20T23:43:19.427Z,16.57
2018-11-20T23:46:09.799Z,15.93
2018-11-20T23:49:17.339Z,16.87
2018-11-20T23:51:54.254Z,17.25
2018-11-20T23:54:24.433Z,17.17
2018-11-20T23:59:47.053Z,16.73
